createdAt,value
2019-05-10T00:01:06.932Z,99429.42
2019-05-10T00:03:54.195Z,99432.14
2019-05-10T00:06:41.883Z,99425.56
2019-05-10T00:09:11.013Z,99424.30
2019-05-10T00:11:49.317Z,99428.30
2019-05-10T00:14:20.419Z,99428.42
2019-05-10T00:16:51.360Z,99426.27
2019-05-10T00:19:20.843Z,99428.53
2019-05-10T00:21:50.380Z,99431.19
2019-05-10T00:24:19.816Z,99426.76
2019-05-10T00:26:49.357Z,99423.72
2019-05-10T00:29:19.002Z,99429.94
2019-05-10T00:31:48.458Z,99430.02
2019-05-10T00:34:17.907Z,99429.61
2019-05-10T00:36:47.767Z,99434.08
2019-05-10T00:39:19.566Z,99433.25
2019-05-10T00:41:48.739Z,99436.40
2019-05-10T00:44:18.225Z,99430.73
2019-05-10T00:46:47.785Z,99437.88
2019-05-10T00:49:17.233Z,99438.81
2019-05-10T00:51:46.743Z,99438.86
2019-05-10T00:54:16.275Z,99444.22
2019-05-10T00:56:46.071Z,99442.97
2019-05-10T00:59:15.572Z,99446.98
2019-05-10T01:01:45.104Z,99440.90
2019-05-10T01:04:14.905Z,99451.99
2019-05-10T01:06:44.399Z,99455.13
2019-05-10T01:09:13.969Z,99459.59
2019-05-10T01:11:43.419Z,99462.27
2019-05-10T01:14:12.894Z,99466.75
2019-05-10T01:16:42.356Z,99470.76
2019-05-10T01:19:11.852Z,99465.11
2019-05-10T01:21:41.672Z,99460.75
2019-05-10T01:24:11.469Z,99471.34
2019-05-10T01:26:40.995Z,99468.71
2019-05-10T01:29:10.889Z,99470.92
2019-05-10T01:31:40.437Z,99480.62
2019-05-10T01:34:09.888Z,99486.87
2019-05-10T01:36:39.551Z,99482.45
2019-05-10T01:39:09.030Z,99482.04
2019-05-10T01:41:38.557Z,99485.18
2019-05-10T01:44:07.997Z,99485.64
2019-05-10T01:46:37.869Z,99491.37
2019-05-10T01:49:07.313Z,99495.38
2019-05-10T01:51:36.802Z,99505.10
2019-05-10T01:54:09.424Z,99503.81
2019-05-10T01:56:39.350Z,99502.95
2019-05-10T01:59:08.958Z,99504.75
2019-05-10T02:01:38.462Z,99508.71
2019-05-10T02:04:08.202Z,99509.20
2019-05-10T02:06:37.759Z,99510.08
2019-05-10T02:09:08.475Z,99506.55
2019-05-10T02:11:37.961Z,99515.41
2019-05-10T02:14:07.444Z,99514.09
2019-05-10T02:16:37.177Z,99523.84
2019-05-10T02:19:06.661Z,99526.50
2019-05-10T02:21:36.220Z,99529.60
2019-05-10T02:24:05.707Z,99524.75
2019-05-10T02:26:35.477Z,99538.00
2019-05-10T02:29:05.392Z,99538.45
2019-05-10T02:31:34.876Z,99534.94
2019-05-10T02:34:04.354Z,99534.97
2019-05-10T02:36:33.926Z,99536.75
2019-05-10T02:39:03.374Z,99541.17
2019-05-10T02:41:33.132Z,99549.14
2019-05-10T02:44:02.581Z,99549.59
2019-05-10T02:46:32.062Z,99544.72
2019-05-10T02:49:01.516Z,99548.72
2019-05-10T02:51:31.370Z,99551.75
2019-05-10T02:54:01.196Z,99551.75
2019-05-10T02:56:31.923Z,99553.95
2019-05-10T02:59:02.403Z,99552.19
2019-05-10T03:01:31.957Z,99553.06
2019-05-10T03:04:02.770Z,99554.34
2019-05-10T03:06:35.531Z,99560.97
2019-05-10T03:09:07.562Z,99563.60
2019-05-10T03:11:47.380Z,99559.17
2019-05-10T03:14:20.415Z,99563.58
2019-05-10T03:16:52.939Z,99566.70
2019-05-10T03:19:22.767Z,99565.34
2019-05-10T03:22:09.145Z,99571.49
2019-05-10T03:24:38.981Z,99576.73
2019-05-10T03:27:08.434Z,99579.39
2019-05-10T03:29:37.917Z,99584.22
2019-05-10T03:32:07.643Z,99589.93
2019-05-10T03:34:37.133Z,99592.53
2019-05-10T03:37:06.842Z,99594.29
2019-05-10T03:39:36.434Z,99597.78
2019-05-10T03:42:06.061Z,99595.98
2019-05-10T03:44:35.622Z,99596.83
2019-05-10T03:47:05.071Z,99598.98
2019-05-10T03:49:34.869Z,99600.27
2019-05-10T03:52:04.688Z,99600.66
2019-05-10T03:54:35.265Z,99608.15
2019-05-10T03:57:13.177Z,99611.22
2019-05-10T03:59:35.921Z,99615.17
2019-05-10T04:02:05.452Z,99614.28
2019-05-10T04:04:35.081Z,99612.92
2019-05-10T04:07:04.629Z,99615.09
2019-05-10T04:09:34.168Z,99619.94
2019-05-10T04:12:03.623Z,99623.45
2019-05-10T04:14:33.128Z,99621.24
2019-05-10T04:17:02.586Z,99626.97
2019-05-10T04:19:32.066Z,99624.28
2019-05-10T04:22:01.518Z,99626.04
2019-05-10T04:24:35.695Z,99630.00
2019-05-10T04:27:02.219Z,99630.84
2019-05-10T04:29:32.114Z,99633.52
2019-05-10T04:32:01.571Z,99643.69
2019-05-10T04:34:31.068Z,99643.67
2019-05-10T04:37:00.558Z,99644.55
2019-05-10T04:39:30.054Z,99650.76
2019-05-10T04:41:59.515Z,99656.48
2019-05-10T04:44:29.063Z,99656.95
2019-05-10T04:46:58.530Z,99665.34
2019-05-10T04:49:28.122Z,99665.30
2019-05-10T04:51:57.685Z,99665.30
2019-05-10T04:54:27.141Z,99671.89
2019-05-10T04:57:00.081Z,99671.44
2019-05-10T04:59:27.790Z,99670.09
2019-05-10T05:01:57.277Z,99674.48
2019-05-10T05:04:26.837Z,99671.39
2019-05-10T05:06:56.635Z,99680.23
2019-05-10T05:09:26.447Z,99680.66
2019-05-10T05:11:56.221Z,99687.27
2019-05-10T05:14:25.673Z,99686.83
2019-05-10T05:16:55.363Z,99691.66
2019-05-10T05:19:25.185Z,99689.88
2019-05-10T05:21:55.425Z,99696.94
2019-05-10T05:24:24.892Z,99702.20
2019-05-10T05:26:54.416Z,99702.16
2019-05-10T05:29:23.873Z,99704.73
2019-05-10T05:31:53.968Z,99713.50
2019-05-10T05:34:24.527Z,99709.06
2019-05-10T05:36:54.087Z,99712.99
2019-05-10T05:39:23.555Z,99719.55
2019-05-10T05:41:56.274Z,99717.65
2019-05-10T05:44:26.221Z,99713.61
2019-05-10T05:46:55.540Z,99712.58
2019-05-10T05:49:25.022Z,99712.86
2019-05-10T05:51:54.635Z,99714.87
2019-05-10T05:54:24.184Z,99720.47
2019-05-10T05:56:53.712Z,99719.27
2019-05-10T05:59:25.927Z,99718.06
2019-05-10T06:01:54.424Z,99723.44
2019-05-10T06:04:24.304Z,99719.92
2019-05-10T06:06:59.151Z,99722.93
2019-05-10T06:09:25.123Z,99722.78
2019-05-10T06:11:54.964Z,99716.95
2019-05-10T06:14:24.449Z,99723.51
2019-05-10T06:16:53.979Z,99716.09
2019-05-10T06:19:29.340Z,99719.14
2019-05-10T06:21:57.945Z,99723.89
2019-05-10T06:24:27.198Z,99718.75
2019-05-10T06:26:58.196Z,99722.27
2019-05-10T06:29:28.332Z,99724.92
2019-05-10T06:31:58.908Z,99729.91
2019-05-10T06:34:31.775Z,99733.36
2019-05-10T06:37:00.384Z,99731.89
2019-05-10T06:39:29.861Z,99737.05
2019-05-10T06:41:59.346Z,99739.50
2019-05-10T06:44:31.204Z,99736.03
2019-05-10T06:47:02.023Z,99743.20
2019-05-10T06:49:31.725Z,99748.94
2019-05-10T06:52:01.225Z,99747.77
2019-05-10T06:54:31.057Z,99746.16
2019-05-10T06:57:01.987Z,99747.66
2019-05-10T06:59:32.905Z,99748.64
2019-05-10T07:02:02.722Z,99755.39
2019-05-10T07:04:37.872Z,99759.38
2019-05-10T07:07:10.398Z,99755.13
2019-05-10T07:10:00.439Z,99758.45
2019-05-10T07:12:09.291Z,99757.19
2019-05-10T07:14:44.963Z,99753.30
2019-05-10T07:17:08.454Z,99757.89
2019-05-10T07:19:41.585Z,99759.58
2019-05-10T07:22:09.437Z,99757.54
2019-05-10T07:24:38.966Z,99761.70
2019-05-10T07:27:08.543Z,99762.62
2019-05-10T07:29:42.879Z,99762.36
2019-05-10T07:32:10.433Z,99757.29
2019-05-10T07:34:39.944Z,99757.59
2019-05-10T07:37:10.436Z,99761.80
2019-05-10T07:39:39.908Z,99762.42
2019-05-10T07:42:09.417Z,99761.57
2019-05-10T07:44:41.642Z,99759.86
2019-05-10T07:47:10.084Z,99758.22
2019-05-10T07:49:39.919Z,99764.91
2019-05-10T07:52:09.412Z,99775.58
2019-05-10T07:54:45.290Z,99773.72
2019-05-10T07:57:10.109Z,99769.48
2019-05-10T07:59:49.959Z,99776.63
2019-05-10T08:02:12.939Z,99778.41
2019-05-10T08:04:42.101Z,99785.36
2019-05-10T08:07:12.631Z,99784.23
2019-05-10T08:09:45.242Z,99788.64
2019-05-10T08:12:13.256Z,99793.81
2019-05-10T08:14:44.543Z,99789.20
2019-05-10T08:17:14.241Z,99799.34
2019-05-10T08:19:44.034Z,99799.45
2019-05-10T08:22:14.908Z,99798.66
2019-05-10T08:24:52.120Z,99800.87
2019-05-10T08:27:16.693Z,99807.91
2019-05-10T08:29:53.878Z,99802.62
2019-05-10T08:32:19.333Z,99808.33
2019-05-10T08:34:53.069Z,99803.55
2019-05-10T08:37:30.742Z,99821.94
2019-05-10T08:39:55.953Z,99827.21
2019-05-10T08:42:37.836Z,99820.47
2019-05-10T08:45:03.755Z,99827.73
2019-05-10T08:47:27.854Z,99825.66
2019-05-10T08:50:12.185Z,99835.10
2019-05-10T08:52:31.739Z,99834.36
2019-05-10T08:55:02.750Z,99843.20
2019-05-10T08:57:34.774Z,99857.91
2019-05-10T09:00:08.770Z,99853.02
2019-05-10T09:02:38.023Z,99851.45
2019-05-10T09:05:08.341Z,99858.52
2019-05-10T09:07:39.077Z,99870.70
2019-05-10T09:10:09.818Z,99864.05
2019-05-10T09:12:44.135Z,99871.61
2019-05-10T09:15:13.513Z,99881.70
2019-05-10T09:17:42.966Z,99883.52
2019-05-10T09:20:20.599Z,99886.36
2019-05-10T09:22:45.055Z,99885.72
2019-05-10T09:25:15.110Z,99894.50
2019-05-10T09:27:44.850Z,99896.28
2019-05-10T09:30:18.536Z,99903.92
2019-05-10T09:32:48.245Z,99908.09
2019-05-10T09:35:18.811Z,99903.65
2019-05-10T09:37:56.728Z,99907.81
2019-05-10T09:40:21.851Z,99908.55
2019-05-10T09:42:52.276Z,99911.77
2019-05-10T09:45:24.326Z,99918.08
2019-05-10T09:47:53.275Z,99920.27
2019-05-10T09:50:23.309Z,99922.94
2019-05-10T09:52:52.859Z,99923.81
2019-05-10T09:55:22.429Z,99921.45
2019-05-10T09:57:51.949Z,99932.33
2019-05-10T10:00:24.516Z,99932.48
2019-05-10T10:02:56.695Z,99934.45
2019-05-10T10:05:25.506Z,99936.58
2019-05-10T10:07:57.723Z,99936.48
2019-05-10T10:10:32.205Z,99922.64
2019-05-10T10:13:07.332Z,99938.81
2019-05-10T10:15:33.941Z,99938.90
2019-05-10T10:18:00.110Z,99940.31
2019-05-10T10:20:36.046Z,99945.20
2019-05-10T10:23:02.947Z,99952.00
2019-05-10T10:25:35.332Z,99961.13
2019-05-10T10:28:08.246Z,99971.05
2019-05-10T10:30:37.406Z,99973.89
2019-05-10T10:33:11.349Z,99979.05
2019-05-10T10:35:38.339Z,99978.99
2019-05-10T10:38:08.273Z,99977.24
2019-05-10T10:40:44.346Z,99970.34
2019-05-10T10:43:09.306Z,99984.11
2019-05-10T10:45:38.819Z,99976.50
2019-05-10T10:48:12.604Z,99980.73
2019-05-10T10:50:44.393Z,99992.70
2019-05-10T10:53:13.494Z,99990.22
2019-05-10T10:55:48.359Z,99984.02
2019-05-10T10:58:14.309Z,99987.23
2019-05-10T11:00:43.856Z,99992.82
2019-05-10T11:03:13.481Z,99993.44
2019-05-10T11:05:43.147Z,99998.68
2019-05-10T11:08:15.402Z,100002.91
2019-05-10T11:10:45.418Z,100000.25
2019-05-10T11:13:20.453Z,100003.77
2019-05-10T11:15:46.061Z,100007.95
2019-05-10T11:18:15.531Z,100005.02
2019-05-10T11:20:49.328Z,100007.03
2019-05-10T11:23:16.430Z,100007.53
2019-05-10T11:25:54.827Z,100012.39
2019-05-10T11:28:17.809Z,100015.58
2019-05-10T11:30:47.388Z,100023.55
2019-05-10T11:33:29.141Z,100012.52
2019-05-10T11:35:51.333Z,100028.78
2019-05-10T11:38:21.580Z,100015.79
2019-05-10T11:40:51.115Z,100024.05
2019-05-10T11:43:23.703Z,100025.83
2019-05-10T11:45:54.329Z,100026.98
2019-05-10T11:48:31.081Z,100027.11
2019-05-10T11:50:56.025Z,100025.13
2019-05-10T11:53:25.473Z,100024.44
2019-05-10T11:55:55.057Z,100026.58
2019-05-10T11:58:24.994Z,100026.42
2019-05-10T12:00:59.381Z,100027.67
2019-05-10T12:03:25.954Z,100031.62
2019-05-10T12:06:04.361Z,100039.77
2019-05-10T12:08:26.601Z,100044.85
2019-05-10T12:11:07.604Z,100037.14
2019-05-10T12:13:32.564Z,100051.33
2019-05-10T12:16:00.261Z,100052.04
2019-05-10T12:18:32.522Z,100057.48
2019-05-10T12:21:09.437Z,100061.37
2019-05-10T12:23:32.273Z,100055.86
2019-05-10T12:27:13.156Z,100061.46
2019-05-10T12:28:35.479Z,100062.59
2019-05-10T12:31:07.743Z,100074.80
2019-05-10T12:33:36.627Z,100070.84
2019-05-10T12:36:13.527Z,100073.11
2019-05-10T12:38:38.539Z,100081.81
2019-05-10T12:41:09.210Z,100076.53
2019-05-10T12:43:43.136Z,100076.34
2019-05-10T12:46:10.550Z,100078.68
2019-05-10T12:48:42.482Z,100072.67
2019-05-10T12:51:15.687Z,100077.33
2019-05-10T12:53:47.627Z,100079.28
2019-05-10T12:56:14.557Z,100082.38
2019-05-10T12:58:44.036Z,100084.40
2019-05-10T13:01:13.564Z,100073.34
2019-05-10T13:03:43.133Z,100086.45
2019-05-10T13:06:12.673Z,100091.47
2019-05-10T13:08:42.195Z,100099.80
2019-05-10T13:11:11.709Z,100110.41
2019-05-10T13:13:41.270Z,100112.19
2019-05-10T13:16:11.917Z,100097.28
2019-05-10T13:18:50.207Z,100100.12
2019-05-10T13:21:19.747Z,100102.98
2019-05-10T13:23:44.068Z,100099.52
2019-05-10T13:26:13.963Z,100104.16
2019-05-10T13:28:44.586Z,100104.51
2019-05-10T13:31:15.200Z,100104.73
2019-05-10T13:33:45.012Z,100111.07
2019-05-10T13:36:15.132Z,100111.20
2019-05-10T13:38:49.067Z,100112.22
2019-05-10T13:41:17.758Z,100112.48
2019-05-10T13:43:47.263Z,100116.90
2019-05-10T13:46:16.773Z,100112.98
2019-05-10T13:48:46.273Z,100115.73
2019-05-10T13:51:15.826Z,100123.98
2019-05-10T13:53:45.360Z,100119.77
2019-05-10T13:56:14.912Z,100120.66
2019-05-10T13:58:44.573Z,100115.91
2019-05-10T14:01:14.889Z,100122.02
2019-05-10T14:03:48.883Z,100119.95
2019-05-10T14:06:16.550Z,100128.06
2019-05-10T14:08:48.201Z,100130.41
2019-05-10T14:11:17.473Z,100139.28
2019-05-10T14:13:47.067Z,100131.49
2019-05-10T14:16:19.732Z,100136.55
2019-05-10T14:18:48.132Z,100143.72
2019-05-10T14:21:17.884Z,100146.69
2019-05-10T14:23:47.477Z,100143.22
2019-05-10T14:26:18.285Z,100139.05
2019-05-10T14:28:53.078Z,100147.58
2019-05-10T14:31:19.269Z,100154.78
2019-05-10T14:34:14.103Z,100155.08
2019-05-10T14:36:20.002Z,100158.05
2019-05-10T14:38:53.922Z,100158.80
2019-05-10T14:41:20.896Z,100154.97
2019-05-10T14:43:50.796Z,100157.43
2019-05-10T14:46:20.252Z,100162.41
2019-05-10T14:48:49.929Z,100159.53
2019-05-10T14:51:19.710Z,100165.34
2019-05-10T14:53:49.303Z,100172.83
2019-05-10T14:56:18.767Z,100164.35
2019-05-10T14:58:48.462Z,100169.89
2019-05-10T15:01:18.041Z,100173.50
2019-05-10T15:03:47.643Z,100183.33
2019-05-10T15:06:17.569Z,100174.50
2019-05-10T15:08:49.118Z,100185.08
2019-05-10T15:11:18.289Z,100187.69
2019-05-10T15:13:47.848Z,100192.38
2019-05-10T15:16:25.719Z,100191.25
2019-05-10T15:18:49.638Z,100194.56
2019-05-10T15:21:19.159Z,100199.19
2019-05-10T15:23:48.940Z,100195.35
2019-05-10T15:26:18.473Z,100195.53
2019-05-10T15:28:50.711Z,100205.12
2019-05-10T15:31:23.675Z,100207.89
2019-05-10T15:33:52.014Z,100210.15
2019-05-10T15:36:23.644Z,100204.23
2019-05-10T15:38:53.111Z,100221.18
2019-05-10T15:41:24.003Z,100218.80
2019-05-10T15:43:54.991Z,100225.57
2019-05-10T15:46:35.329Z,100225.92
2019-05-10T15:48:55.918Z,100229.23
2019-05-10T15:51:35.736Z,100223.59
2019-05-10T15:54:04.209Z,100222.42
2019-05-10T15:56:28.901Z,100230.12
2019-05-10T15:58:58.448Z,100231.53
2019-05-10T16:01:29.192Z,100236.50
2019-05-10T16:03:58.862Z,100243.70
2019-05-10T16:06:37.300Z,100233.06
2019-05-10T16:09:02.896Z,100224.20
2019-05-10T16:11:32.796Z,100223.75
2019-05-10T16:14:02.338Z,100224.23
2019-05-10T16:16:36.974Z,100232.66
2019-05-10T16:19:03.218Z,100228.75
2019-05-10T16:21:34.121Z,100234.41
2019-05-10T16:24:04.451Z,100234.53
2019-05-10T16:26:34.241Z,100240.15
2019-05-10T16:29:03.688Z,100243.73
2019-05-10T16:31:33.196Z,100244.24
2019-05-10T16:34:02.656Z,100244.96
2019-05-10T16:36:32.138Z,100244.78
2019-05-10T16:39:02.193Z,100256.11
2019-05-10T16:41:32.954Z,100252.84
2019-05-10T16:44:02.433Z,100250.39
2019-05-10T16:46:31.877Z,100260.95
2019-05-10T16:49:01.366Z,100259.05
2019-05-10T16:51:30.945Z,100256.20
2019-05-10T16:54:00.427Z,100262.09
2019-05-10T16:56:29.919Z,100253.94
2019-05-10T16:58:59.706Z,100259.33
2019-05-10T17:01:33.215Z,100262.79
2019-05-10T17:04:01.798Z,100265.29
2019-05-10T17:06:35.353Z,100271.69
2019-05-10T17:09:02.684Z,100270.11
2019-05-10T17:11:32.186Z,100277.30
2019-05-10T17:14:01.922Z,100274.09
2019-05-10T17:16:31.399Z,100280.56
2019-05-10T17:19:00.947Z,100275.09
2019-05-10T17:21:30.429Z,100279.36
2019-05-10T17:24:01.290Z,100281.89
2019-05-10T17:26:32.803Z,100285.42
2019-05-10T17:29:02.346Z,100290.08
2019-05-10T17:31:32.880Z,100290.36
2019-05-10T17:34:02.323Z,100288.98
2019-05-10T17:36:32.196Z,100293.89
2019-05-10T17:39:01.641Z,100296.95
2019-05-10T17:41:31.304Z,100286.59
2019-05-10T17:44:00.777Z,100289.60
2019-05-10T17:46:30.248Z,100284.02
2019-05-10T17:48:59.729Z,100294.31
2019-05-10T17:51:29.209Z,100294.05
2019-05-10T17:54:01.538Z,100292.81
2019-05-10T17:56:32.934Z,100293.87
2019-05-10T17:59:05.970Z,100291.23
2019-05-10T18:01:32.465Z,100297.91
2019-05-10T18:04:01.992Z,100303.82
2019-05-10T18:06:31.508Z,100307.56
2019-05-10T18:09:02.456Z,100301.03
2019-05-10T18:11:36.922Z,100298.03
2019-05-10T18:14:04.991Z,100299.45
2019-05-10T18:16:34.525Z,100297.77
2019-05-10T18:19:04.012Z,100303.61
2019-05-10T18:21:33.457Z,100312.05
2019-05-10T18:24:02.902Z,100311.27
2019-05-10T18:26:34.197Z,100317.46
2019-05-10T18:29:03.985Z,100317.92
2019-05-10T18:31:33.465Z,100328.53
2019-05-10T18:34:03.062Z,100325.45
2019-05-10T18:36:50.605Z,100322.41
2019-05-10T18:39:08.912Z,100325.16
2019-05-10T18:41:36.690Z,100323.45
2019-05-10T18:44:06.283Z,100329.23
2019-05-10T18:46:35.805Z,100329.69
2019-05-10T18:49:05.869Z,100328.81
2019-05-10T18:51:35.734Z,100320.88
2019-05-10T18:54:05.591Z,100321.76
2019-05-10T18:56:35.052Z,100324.91
2019-05-10T18:59:07.358Z,100328.04
2019-05-10T19:01:38.791Z,100333.81
2019-05-10T19:04:13.175Z,100329.41
2019-05-10T19:06:38.356Z,100328.54
2019-05-10T19:09:08.096Z,100340.03
2019-05-10T19:11:39.067Z,100341.38
2019-05-10T19:14:09.115Z,100339.59
2019-05-10T19:16:38.712Z,100342.70
2019-05-10T19:19:08.535Z,100340.50
2019-05-10T19:21:38.411Z,100346.70
2019-05-10T19:24:07.982Z,100338.73
2019-05-10T19:26:37.467Z,100347.58
2019-05-10T19:29:07.054Z,100345.36
2019-05-10T19:31:40.261Z,100356.86
2019-05-10T19:34:09.131Z,100361.72
2019-05-10T19:36:39.721Z,100360.39
2019-05-10T19:39:09.310Z,100360.39
2019-05-10T19:41:38.824Z,100366.14
2019-05-10T19:44:08.311Z,100361.27
2019-05-10T19:46:39.524Z,100365.70
2019-05-10T19:49:13.178Z,100367.46
2019-05-10T19:51:42.360Z,100364.81
2019-05-10T19:54:13.734Z,100360.84
2019-05-10T19:56:42.665Z,100366.13
2019-05-10T19:59:13.536Z,100358.17
2019-05-10T20:01:45.424Z,100364.35
2019-05-10T20:04:14.621Z,100371.42
2019-05-10T20:06:44.070Z,100372.75
2019-05-10T20:09:13.831Z,100371.42
2019-05-10T20:11:43.282Z,100368.34
2019-05-10T20:14:12.841Z,100374.52
2019-05-10T20:16:52.198Z,100375.41
2019-05-10T20:19:13.575Z,100374.96
2019-05-10T20:21:43.057Z,100378.97
2019-05-10T20:24:13.988Z,100376.30
2019-05-10T20:26:43.488Z,100376.76
2019-05-10T20:29:12.987Z,100379.44
2019-05-10T20:31:42.455Z,100380.31
2019-05-10T20:34:12.009Z,100375.43
2019-05-10T20:36:41.459Z,100375.42
2019-05-10T20:39:10.940Z,100372.79
2019-05-10T20:41:40.844Z,100378.09
2019-05-10T20:44:10.324Z,100373.67
2019-05-10T20:46:39.932Z,100378.09
2019-05-10T20:49:09.434Z,100381.19
2019-05-10T20:51:38.929Z,100388.28
2019-05-10T20:54:08.383Z,100380.74
2019-05-10T20:56:37.901Z,100385.62
2019-05-10T20:59:07.563Z,100384.72
2019-05-10T21:01:37.329Z,100396.67
2019-05-10T21:04:06.818Z,100402.41
2019-05-10T21:06:37.447Z,100411.27
2019-05-10T21:09:07.670Z,100409.05
2019-05-10T21:11:37.159Z,100415.70
2019-05-10T21:14:06.760Z,100413.94
2019-05-10T21:16:37.338Z,100414.38
2019-05-10T21:19:06.874Z,100417.92
2019-05-10T21:21:36.334Z,100424.13
2019-05-10T21:24:05.838Z,100426.34
2019-05-10T21:26:35.429Z,100423.69
2019-05-10T21:29:05.165Z,100420.59
2019-05-10T21:31:34.606Z,100415.28
2019-05-10T21:34:09.559Z,100415.73
2019-05-10T21:36:35.634Z,100423.27
2019-05-10T21:39:07.096Z,100424.16
2019-05-10T21:41:36.546Z,100426.36
2019-05-10T21:44:07.417Z,100422.77
2019-05-10T21:46:36.937Z,100422.77
2019-05-10T21:49:06.445Z,100417.96
2019-05-10T21:51:35.973Z,100422.38
2019-05-10T21:54:05.780Z,100420.19
2019-05-10T21:56:36.506Z,100419.72
2019-05-10T21:59:06.641Z,100424.60
2019-05-10T22:01:36.627Z,100419.26
2019-05-10T22:04:06.200Z,100418.80
2019-05-10T22:06:35.737Z,100417.92
2019-05-10T22:09:07.543Z,100424.11
2019-05-10T22:11:37.022Z,100413.94
2019-05-10T22:14:06.515Z,100420.09
2019-05-10T22:16:36.081Z,100416.98
2019-05-10T22:19:05.577Z,100413.88
2019-05-10T22:21:35.355Z,100414.75
2019-05-10T22:24:05.366Z,100411.64
2019-05-10T22:26:35.174Z,100403.66
2019-05-10T22:29:04.674Z,100412.08
2019-05-10T22:31:35.134Z,100407.20
2019-05-10T22:34:05.978Z,100411.19
2019-05-10T22:36:35.493Z,100411.18
2019-05-10T22:39:07.637Z,100411.61
2019-05-10T22:41:37.215Z,100417.38
2019-05-10T22:44:06.740Z,100416.48
2019-05-10T22:46:36.236Z,100416.05
2019-05-10T22:49:05.684Z,100416.05
2019-05-10T22:51:35.149Z,100416.95
2019-05-10T22:54:04.711Z,100418.70
2019-05-10T22:56:34.228Z,100412.08
2019-05-10T22:59:04.082Z,100406.31
2019-05-10T23:01:33.582Z,100400.55
2019-05-10T23:04:03.126Z,100402.30
2019-05-10T23:06:32.627Z,100406.25
2019-05-10T23:09:02.127Z,100409.33
2019-05-10T23:11:31.798Z,100407.97
2019-05-10T23:14:01.263Z,100410.63
2019-05-10T23:16:30.749Z,100412.38
2019-05-10T23:19:00.195Z,100409.72
2019-05-10T23:21:29.693Z,100411.91
2019-05-10T23:24:00.823Z,100393.78
2019-05-10T23:26:30.706Z,100404.76
2019-05-10T23:29:00.204Z,100410.48
2019-05-10T23:31:29.708Z,100407.37
2019-05-10T23:33:59.451Z,100403.81
2019-05-10T23:36:29.017Z,100402.48
2019-05-10T23:38:58.474Z,100406.45
2019-05-10T23:41:27.967Z,100393.20
2019-05-10T23:43:57.426Z,100398.47
2019-05-10T23:46:27.273Z,100384.71
2019-05-10T23:48:57.082Z,100385.56
2019-05-10T23:51:26.946Z,100389.52
2019-05-10T23:53:56.413Z,100394.77
2019-05-10T23:56:26.059Z,100386.39
2019-05-10T23:58:55.520Z,100390.31
